sensor_id;sensor_type;location;lat;lon;timestamp;pressure;altitude;pressure_sealevel;temperature;humidity
8140;BME280;4111;50.972;7.072;2023-05-24T00:02:12;101831.84;;;11.52;71.73
8140;BME280;4111;50.972;7.072;2023-05-24T00:04:40;101840.59;;;11.55;71.42
8140;BME280;4111;50.972;7.072;2023-05-24T00:07:07;101839.34;;;11.57;71.66
8140;BME280;4111;50.972;7.072;2023-05-24T00:09:34;101841.44;;;11.55;71.41
8140;BME280;4111;50.972;7.072;2023-05-24T00:12:00;101839.19;;;11.52;71.44
8140;BME280;4111;50.972;7.072;2023-05-24T00:14:27;101842.81;;;11.46;71.49
8140;BME280;4111;50.972;7.072;2023-05-24T00:16:53;101851.19;;;11.44;71.61
8140;BME280;4111;50.972;7.072;2023-05-24T00:19:20;101844.31;;;11.42;71.76
8140;BME280;4111;50.972;7.072;2023-05-24T00:21:48;101840.44;;;11.31;72.18
8140;BME280;4111;50.972;7.072;2023-05-24T00:24:14;101843.22;;;11.24;72.13
8140;BME280;4111;50.972;7.072;2023-05-24T00:26:42;101852.72;;;11.15;72.46
8140;BME280;4111;50.972;7.072;2023-05-24T00:29:09;101850.59;;;11.17;72.83
8140;BME280;4111;50.972;7.072;2023-05-24T00:31:36;101853.94;;;11.19;72.63
8140;BME280;4111;50.972;7.072;2023-05-24T00:34:02;101848.78;;;11.11;73.14
8140;BME280;4111;50.972;7.072;2023-05-24T00:36:29;101844.34;;;11.17;73.29
8140;BME280;4111;50.972;7.072;2023-05-24T00:38:56;101843.06;;;11.19;73.19
8140;BME280;4111;50.972;7.072;2023-05-24T00:41:22;101840.19;;;11.14;73.29
8140;BME280;4111;50.972;7.072;2023-05-24T00:43:49;101834.75;;;11.14;73.33
8140;BME280;4111;50.972;7.072;2023-05-24T00:46:18;101841.97;;;11.02;73.65
8140;BME280;4111;50.972;7.072;2023-05-24T00:48:48;101848.88;;;10.98;73.69
8140;BME280;4111;50.972;7.072;2023-05-24T00:51:15;101850.78;;;10.97;74.06
8140;BME280;4111;50.972;7.072;2023-05-24T00:53:44;101851.00;;;10.96;73.83
8140;BME280;4111;50.972;7.072;2023-05-24T00:56:16;101846.25;;;10.91;73.93
8140;BME280;4111;50.972;7.072;2023-05-24T00:58:43;101847.25;;;10.97;73.86
8140;BME280;4111;50.972;7.072;2023-05-24T01:01:11;101848.28;;;10.96;73.89
8140;BME280;4111;50.972;7.072;2023-05-24T01:03:37;101849.25;;;10.83;74.06
8140;BME280;4111;50.972;7.072;2023-05-24T01:06:06;101845.78;;;10.69;74.61
8140;BME280;4111;50.972;7.072;2023-05-24T01:22:37;101837.50;;;10.19;76.42
8140;BME280;4111;50.972;7.072;2023-05-24T01:27:41;101850.53;;;10.03;77.39
8140;BME280;4111;50.972;7.072;2023-05-24T01:30:08;101845.78;;;9.92;77.83
8140;BME280;4111;50.972;7.072;2023-05-24T01:32:35;101838.06;;;9.89;78.08
8140;BME280;4111;50.972;7.072;2023-05-24T01:35:01;101844.97;;;9.85;78.41
8140;BME280;4111;50.972;7.072;2023-05-24T01:37:28;101836.84;;;9.78;78.59
8140;BME280;4111;50.972;7.072;2023-05-24T01:39:55;101839.16;;;9.75;79.05
8140;BME280;4111;50.972;7.072;2023-05-24T01:42:26;101838.94;;;9.76;79.16
8140;BME280;4111;50.972;7.072;2023-05-24T01:48:37;101834.09;;;9.85;78.70
8140;BME280;4111;50.972;7.072;2023-05-24T01:51:09;101839.28;;;9.93;78.51
8140;BME280;4111;50.972;7.072;2023-05-24T01:53:44;101834.72;;;9.87;78.80
8140;BME280;4111;50.972;7.072;2023-05-24T01:56:12;101838.09;;;9.82;78.81
8140;BME280;4111;50.972;7.072;2023-05-24T01:58:42;101836.84;;;9.71;79.02
8140;BME280;4111;50.972;7.072;2023-05-24T02:01:10;101837.94;;;9.64;79.66
8140;BME280;4111;50.972;7.072;2023-05-24T02:03:39;101836.53;;;9.48;79.91
8140;BME280;4111;50.972;7.072;2023-05-24T02:06:06;101833.22;;;9.46;80.20
8140;BME280;4111;50.972;7.072;2023-05-24T02:08:33;101833.19;;;9.39;80.33
8140;BME280;4111;50.972;7.072;2023-05-24T02:11:00;101827.81;;;9.32;80.74
8140;BME280;4111;50.972;7.072;2023-05-24T02:13:27;101831.38;;;9.26;80.58
8140;BME280;4111;50.972;7.072;2023-05-24T02:15:54;101824.25;;;9.25;80.82
8140;BME280;4111;50.972;7.072;2023-05-24T02:18:20;101823.22;;;9.20;80.83
8140;BME280;4111;50.972;7.072;2023-05-24T02:20:47;101825.13;;;9.12;81.05
8140;BME280;4111;50.972;7.072;2023-05-24T02:23:14;101833.69;;;9.03;80.95
8140;BME280;4111;50.972;7.072;2023-05-24T02:25:41;101834.09;;;9.00;81.16
8140;BME280;4111;50.972;7.072;2023-05-24T02:28:07;101833.06;;;9.01;81.23
8140;BME280;4111;50.972;7.072;2023-05-24T02:30:34;101833.69;;;9.03;81.28
8140;BME280;4111;50.972;7.072;2023-05-24T02:33:00;101833.25;;;9.06;81.17
8140;BME280;4111;50.972;7.072;2023-05-24T02:35:27;101826.19;;;9.05;81.12
8140;BME280;4111;50.972;7.072;2023-05-24T02:37:54;101832.00;;;8.88;81.51
8140;BME280;4111;50.972;7.072;2023-05-24T02:40:23;101831.19;;;8.81;81.80
8140;BME280;4111;50.972;7.072;2023-05-24T02:42:50;101824.91;;;8.74;82.49
8140;BME280;4111;50.972;7.072;2023-05-24T02:45:16;101821.41;;;8.67;82.26
8140;BME280;4111;50.972;7.072;2023-05-24T02:47:43;101824.28;;;8.72;82.06
8140;BME280;4111;50.972;7.072;2023-05-24T02:50:09;101832.63;;;8.64;82.09
8140;BME280;4111;50.972;7.072;2023-05-24T02:52:36;101817.22;;;8.58;81.83
8140;BME280;4111;50.972;7.072;2023-05-24T02:55:03;101821.56;;;8.59;81.85
8140;BME280;4111;50.972;7.072;2023-05-24T02:57:29;101821.56;;;8.52;82.36
8140;BME280;4111;50.972;7.072;2023-05-24T02:59:59;101824.06;;;8.47;82.45
8140;BME280;4111;50.972;7.072;2023-05-24T03:02:25;101812.78;;;8.37;82.75
8140;BME280;4111;50.972;7.072;2023-05-24T03:04:55;101813.16;;;8.27;82.88
8140;BME280;4111;50.972;7.072;2023-05-24T03:07:21;101821.47;;;8.19;83.21
8140;BME280;4111;50.972;7.072;2023-05-24T03:09:48;101821.25;;;8.13;82.85
8140;BME280;4111;50.972;7.072;2023-05-24T03:12:14;101825.25;;;8.24;83.35
8140;BME280;4111;50.972;7.072;2023-05-24T03:14:41;101821.91;;;8.22;83.27
8140;BME280;4111;50.972;7.072;2023-05-24T03:17:07;101821.28;;;8.27;83.25
8140;BME280;4111;50.972;7.072;2023-05-24T03:19:33;101829.81;;;8.24;83.71
8140;BME280;4111;50.972;7.072;2023-05-24T03:22:00;101817.34;;;8.29;83.59
8140;BME280;4111;50.972;7.072;2023-05-24T03:24:26;101823.97;;;8.27;83.69
8140;BME280;4111;50.972;7.072;2023-05-24T03:26:53;101823.59;;;8.37;83.90
8140;BME280;4111;50.972;7.072;2023-05-24T03:29:19;101817.34;;;8.36;83.93
8140;BME280;4111;50.972;7.072;2023-05-24T03:31:46;101824.41;;;8.37;83.53
8140;BME280;4111;50.972;7.072;2023-05-24T03:34:12;101818.56;;;8.27;84.00
8140;BME280;4111;50.972;7.072;2023-05-24T03:36:39;101823.78;;;8.35;84.15
8140;BME280;4111;50.972;7.072;2023-05-24T03:39:05;101824.03;;;8.40;83.56
8140;BME280;4111;50.972;7.072;2023-05-24T03:41:32;101822.34;;;8.39;83.61
8140;BME280;4111;50.972;7.072;2023-05-24T03:43:59;101822.34;;;8.26;83.48
8140;BME280;4111;50.972;7.072;2023-05-24T03:46:25;101812.50;;;8.11;83.56
8140;BME280;4111;50.972;7.072;2023-05-24T03:48:52;101816.00;;;8.05;83.61
8140;BME280;4111;50.972;7.072;2023-05-24T03:51:19;101813.94;;;8.01;83.75
8140;BME280;4111;50.972;7.072;2023-05-24T03:53:45;101830.34;;;7.92;84.11
8140;BME280;4111;50.972;7.072;2023-05-24T03:56:11;101817.22;;;7.89;84.48
8140;BME280;4111;50.972;7.072;2023-05-24T03:58:38;101822.63;;;7.89;84.50
8140;BME280;4111;50.972;7.072;2023-05-24T04:01:04;101832.63;;;7.95;84.38
8140;BME280;4111;50.972;7.072;2023-05-24T04:03:31;101833.06;;;7.99;84.45
8140;BME280;4111;50.972;7.072;2023-05-24T04:05:59;101838.47;;;7.99;84.37
8140;BME280;4111;50.972;7.072;2023-05-24T04:08:26;101837.25;;;8.02;84.38
8140;BME280;4111;50.972;7.072;2023-05-24T04:10:52;101846.84;;;8.11;84.53
8140;BME280;4111;50.972;7.072;2023-05-24T04:13:19;101850.59;;;8.10;84.74
8140;BME280;4111;50.972;7.072;2023-05-24T04:15:45;101852.88;;;8.13;84.64
8140;BME280;4111;50.972;7.072;2023-05-24T04:18:11;101845.81;;;8.12;84.96
8140;BME280;4111;50.972;7.072;2023-05-24T04:20:38;101849.16;;;8.14;84.88
8140;BME280;4111;50.972;7.072;2023-05-24T04:23:05;101853.50;;;8.08;85.32
8140;BME280;4111;50.972;7.072;2023-05-24T04:25:31;101851.41;;;8.10;85.38
8140;BME280;4111;50.972;7.072;2023-05-24T04:27:58;101856.81;;;8.10;85.76
8140;BME280;4111;50.972;7.072;2023-05-24T04:30:25;101851.44;;;8.17;85.42
8140;BME280;4111;50.972;7.072;2023-05-24T04:32:56;101859.13;;;8.13;85.79
8140;BME280;4111;50.972;7.072;2023-05-24T04:35:24;101862.69;;;8.21;85.61
8140;BME280;4111;50.972;7.072;2023-05-24T04:37:54;101863.94;;;8.25;85.37
8140;BME280;4111;50.972;7.072;2023-05-24T04:40:20;101862.28;;;8.24;86.09
8140;BME280;4111;50.972;7.072;2023-05-24T04:42:49;101860.03;;;8.27;86.07
8140;BME280;4111;50.972;7.072;2023-05-24T04:45:15;101871.88;;;8.33;85.97
8140;BME280;4111;50.972;7.072;2023-05-24T04:47:42;101877.53;;;8.38;86.21
8140;BME280;4111;50.972;7.072;2023-05-24T04:50:09;101874.22;;;8.43;86.32
8140;BME280;4111;50.972;7.072;2023-05-24T04:52:36;101876.72;;;8.44;86.56
8140;BME280;4111;50.972;7.072;2023-05-24T04:55:03;101884.06;;;8.64;86.60
8140;BME280;4111;50.972;7.072;2023-05-24T04:57:29;101890.75;;;8.68;86.70
8140;BME280;4111;50.972;7.072;2023-05-24T04:59:56;101890.75;;;8.74;86.82
8140;BME280;4111;50.972;7.072;2023-05-24T05:02:22;101886.59;;;8.92;86.36
8140;BME280;4111;50.972;7.072;2023-05-24T05:04:51;101893.50;;;8.95;85.98
8140;BME280;4111;50.972;7.072;2023-05-24T05:07:18;101891.59;;;9.02;85.77
8140;BME280;4111;50.972;7.072;2023-05-24T05:09:45;101892.44;;;9.09;86.24
8140;BME280;4111;50.972;7.072;2023-05-24T05:12:11;101892.47;;;9.22;86.28
8140;BME280;4111;50.972;7.072;2023-05-24T05:14:38;101891.38;;;9.30;86.17
8140;BME280;4111;50.972;7.072;2023-05-24T05:17:04;101893.25;;;9.43;85.40
8140;BME280;4111;50.972;7.072;2023-05-24T05:19:31;101898.28;;;9.46;85.73
8140;BME280;4111;50.972;7.072;2023-05-24T05:21:57;101900.53;;;9.56;86.04
8140;BME280;4111;50.972;7.072;2023-05-24T05:24:24;101904.03;;;9.69;85.78
8140;BME280;4111;50.972;7.072;2023-05-24T05:26:50;101904.47;;;9.73;85.17
8140;BME280;4111;50.972;7.072;2023-05-24T05:29:17;101908.81;;;9.81;85.01
8140;BME280;4111;50.972;7.072;2023-05-24T05:31:43;101903.16;;;9.89;84.73
8140;BME280;4111;50.972;7.072;2023-05-24T05:34:09;101911.91;;;9.91;84.32
8140;BME280;4111;50.972;7.072;2023-05-24T05:36:37;101905.47;;;9.92;84.02
8140;BME280;4111;50.972;7.072;2023-05-24T05:39:06;101902.97;;;9.90;83.69
8140;BME280;4111;50.972;7.072;2023-05-24T05:41:38;101898.56;;;9.96;83.98
8140;BME280;4111;50.972;7.072;2023-05-24T05:44:04;101904.81;;;10.03;83.84
8140;BME280;4111;50.972;7.072;2023-05-24T05:46:31;101898.09;;;10.06;83.68
8140;BME280;4111;50.972;7.072;2023-05-24T05:48:58;101906.41;;;10.18;84.18
8140;BME280;4111;50.972;7.072;2023-05-24T05:51:25;101898.03;;;10.26;83.63
8140;BME280;4111;50.972;7.072;2023-05-24T05:53:51;101897.34;;;10.44;83.61
8140;BME280;4111;50.972;7.072;2023-05-24T05:56:18;101893.78;;;10.43;83.07
8140;BME280;4111;50.972;7.072;2023-05-24T05:58:44;101886.97;;;10.66;83.23
8140;BME280;4111;50.972;7.072;2023-05-24T06:01:10;101889.66;;;10.73;82.70
8140;BME280;4111;50.972;7.072;2023-05-24T06:03:37;101885.22;;;10.78;82.36
8140;BME280;4111;50.972;7.072;2023-05-24T06:06:04;101882.63;;;10.90;81.93
8140;BME280;4111;50.972;7.072;2023-05-24T06:08:30;101891.94;;;11.01;81.64
8140;BME280;4111;50.972;7.072;2023-05-24T06:11:00;101894.28;;;10.97;81.21
8140;BME280;4111;50.972;7.072;2023-05-24T06:13:28;101881.69;;;11.03;81.13
8140;BME280;4111;50.972;7.072;2023-05-24T06:15:56;101881.97;;;11.20;80.94
8140;BME280;4111;50.972;7.072;2023-05-24T06:18:24;101877.69;;;11.30;80.48
8140;BME280;4111;50.972;7.072;2023-05-24T06:20:52;101871.31;;;11.18;79.85
8140;BME280;4111;50.972;7.072;2023-05-24T06:23:19;101874.44;;;11.22;79.83
8140;BME280;4111;50.972;7.072;2023-05-24T06:25:45;101874.75;;;11.07;79.39
8140;BME280;4111;50.972;7.072;2023-05-24T06:28:12;101858.94;;;11.22;79.80
8140;BME280;4111;50.972;7.072;2023-05-24T06:30:38;101861.69;;;11.41;80.21
8140;BME280;4111;50.972;7.072;2023-05-24T06:33:05;101859.03;;;11.52;79.41
8140;BME280;4111;50.972;7.072;2023-05-24T06:35:32;101860.22;;;11.63;79.72
8140;BME280;4111;50.972;7.072;2023-05-24T06:37:58;101870.47;;;11.80;79.35
8140;BME280;4111;50.972;7.072;2023-05-24T06:40:24;101877.91;;;11.91;78.98
8140;BME280;4111;50.972;7.072;2023-05-24T06:42:51;101881.25;;;11.93;78.73
8140;BME280;4111;50.972;7.072;2023-05-24T06:45:17;101889.31;;;12.00;78.18
8140;BME280;4111;50.972;7.072;2023-05-24T06:47:44;101883.66;;;12.01;77.47
8140;BME280;4111;50.972;7.072;2023-05-24T06:50:11;101886.22;;;12.15;77.87
8140;BME280;4111;50.972;7.072;2023-05-24T06:52:37;101878.00;;;12.33;77.77
8140;BME280;4111;50.972;7.072;2023-05-24T06:55:04;101882.19;;;12.47;77.21
8140;BME280;4111;50.972;7.072;2023-05-24T06:57:30;101870.19;;;12.67;76.64
8140;BME280;4111;50.972;7.072;2023-05-24T06:59:57;101865.00;;;12.77;76.40
8140;BME280;4111;50.972;7.072;2023-05-24T07:02:23;101869.66;;;12.88;75.85
8140;BME280;4111;50.972;7.072;2023-05-24T07:04:53;101877.09;;;12.81;74.84
8140;BME280;4111;50.972;7.072;2023-05-24T07:07:19;101874.31;;;12.69;74.99
8140;BME280;4111;50.972;7.072;2023-05-24T07:09:46;101879.78;;;12.69;74.83
8140;BME280;4111;50.972;7.072;2023-05-24T07:12:12;101885.94;;;12.65;74.90
8140;BME280;4111;50.972;7.072;2023-05-24T07:14:39;101897.22;;;12.68;75.62
8140;BME280;4111;50.972;7.072;2023-05-24T07:17:05;101887.28;;;12.74;75.45
8140;BME280;4111;50.972;7.072;2023-05-24T07:19:32;101894.19;;;12.88;76.03
8140;BME280;4111;50.972;7.072;2023-05-24T07:22:00;101895.84;;;12.89;75.51
8140;BME280;4111;50.972;7.072;2023-05-24T07:24:26;101893.25;;;12.95;74.52
8140;BME280;4111;50.972;7.072;2023-05-24T07:26:53;101893.72;;;12.92;74.35
8140;BME280;4111;50.972;7.072;2023-05-24T07:29:22;101892.19;;;12.96;73.81
8140;BME280;4111;50.972;7.072;2023-05-24T07:31:48;101898.25;;;12.98;73.23
8140;BME280;4111;50.972;7.072;2023-05-24T07:34:15;101893.25;;;12.95;73.43
8140;BME280;4111;50.972;7.072;2023-05-24T07:36:42;101893.72;;;12.92;73.32
8140;BME280;4111;50.972;7.072;2023-05-24T07:39:08;101903.69;;;12.98;73.58
8140;BME280;4111;50.972;7.072;2023-05-24T07:41:35;101904.47;;;12.86;73.59
8140;BME280;4111;50.972;7.072;2023-05-24T07:44:02;101900.09;;;12.85;73.30
8140;BME280;4111;50.972;7.072;2023-05-24T07:46:28;101901.75;;;12.86;73.86
8140;BME280;4111;50.972;7.072;2023-05-24T07:48:55;101906.28;;;12.93;74.16
8140;BME280;4111;50.972;7.072;2023-05-24T07:51:21;101908.28;;;12.97;73.75
8140;BME280;4111;50.972;7.072;2023-05-24T07:53:48;101904.16;;;12.95;73.19
8140;BME280;4111;50.972;7.072;2023-05-24T07:56:15;101898.47;;;13.08;73.21
8140;BME280;4111;50.972;7.072;2023-05-24T07:58:41;101898.53;;;13.32;73.40
8140;BME280;4111;50.972;7.072;2023-05-24T08:01:09;101896.13;;;13.23;72.26
8140;BME280;4111;50.972;7.072;2023-05-24T08:03:36;101896.72;;;13.14;71.23
8140;BME280;4111;50.972;7.072;2023-05-24T08:06:04;101892.13;;;13.38;71.33
8140;BME280;4111;50.972;7.072;2023-05-24T08:08:30;101893.19;;;13.60;70.60
8140;BME280;4111;50.972;7.072;2023-05-24T08:10:56;101899.69;;;13.83;69.96
8140;BME280;4111;50.972;7.072;2023-05-24T08:13:23;101899.09;;;13.93;69.10
8140;BME280;4111;50.972;7.072;2023-05-24T08:15:49;101894.84;;;13.73;67.79
8140;BME280;4111;50.972;7.072;2023-05-24T08:18:16;101893.19;;;13.60;68.16
8140;BME280;4111;50.972;7.072;2023-05-24T08:20:42;101897.94;;;13.53;67.72
8140;BME280;4111;50.972;7.072;2023-05-24T08:23:09;101894.13;;;13.54;68.02
8140;BME280;4111;50.972;7.072;2023-05-24T08:25:36;101892.94;;;13.50;67.27
8140;BME280;4111;50.972;7.072;2023-05-24T08:28:03;101891.06;;;13.39;67.09
8140;BME280;4111;50.972;7.072;2023-05-24T08:30:29;101898.19;;;13.40;67.58
8140;BME280;4111;50.972;7.072;2023-05-24T08:32:57;101897.72;;;13.43;67.88
8140;BME280;4111;50.972;7.072;2023-05-24T08:35:24;101900.31;;;13.49;68.99
8140;BME280;4111;50.972;7.072;2023-05-24T08:37:50;101905.41;;;13.58;69.61
8140;BME280;4111;50.972;7.072;2023-05-24T08:40:17;101907.69;;;13.49;69.16
8140;BME280;4111;50.972;7.072;2023-05-24T08:42:44;101909.91;;;13.40;68.03
8140;BME280;4111;50.972;7.072;2023-05-24T08:45:15;101904.38;;;13.47;68.16
8140;BME280;4111;50.972;7.072;2023-05-24T08:47:42;101902.81;;;13.51;67.72
8140;BME280;4111;50.972;7.072;2023-05-24T08:50:09;101911.09;;;13.56;67.25
8140;BME280;4111;50.972;7.072;2023-05-24T08:52:36;101904.69;;;13.62;66.71
8140;BME280;4111;50.972;7.072;2023-05-24T08:55:05;101898.75;;;13.65;66.77
8140;BME280;4111;50.972;7.072;2023-05-24T08:57:31;101901.13;;;13.74;67.32
8140;BME280;4111;50.972;7.072;2023-05-24T09:00:00;101889.84;;;13.82;67.47
8140;BME280;4111;50.972;7.072;2023-05-24T09:02:26;101894.91;;;13.90;67.18
8140;BME280;4111;50.972;7.072;2023-05-24T09:04:54;101877.84;;;14.23;66.99
8140;BME280;4111;50.972;7.072;2023-05-24T09:07:21;101888.16;;;14.33;66.07
8140;BME280;4111;50.972;7.072;2023-05-24T09:09:59;101883.47;;;14.45;64.77
8140;BME280;4111;50.972;7.072;2023-05-24T09:12:30;101885.44;;;14.62;64.10
8140;BME280;4111;50.972;7.072;2023-05-24T09:15:05;101877.53;;;14.77;63.19
8140;BME280;4111;50.972;7.072;2023-05-24T09:17:33;101881.59;;;14.92;61.41
8140;BME280;4111;50.972;7.072;2023-05-24T09:20:00;101876.44;;;15.12;61.94
8140;BME280;4111;50.972;7.072;2023-05-24T09:22:28;101876.38;;;15.07;62.30
8140;BME280;4111;50.972;7.072;2023-05-24T09:24:57;101874.22;;;15.09;62.50
8140;BME280;4111;50.972;7.072;2023-05-24T09:27:25;101875.22;;;15.03;62.40
8140;BME280;4111;50.972;7.072;2023-05-24T09:29:52;101876.16;;;14.63;61.33
8140;BME280;4111;50.972;7.072;2023-05-24T09:32:20;101874.31;;;14.52;62.08
8140;BME280;4111;50.972;7.072;2023-05-24T09:34:52;101868.06;;;14.68;63.37
8140;BME280;4111;50.972;7.072;2023-05-24T09:37:21;101882.63;;;14.45;62.39
8140;BME280;4111;50.972;7.072;2023-05-24T09:39:54;101876.16;;;14.34;62.27
8140;BME280;4111;50.972;7.072;2023-05-24T09:42:22;101878.38;;;14.37;62.48
8140;BME280;4111;50.972;7.072;2023-05-24T09:47:31;101879.81;;;14.40;61.98
8140;BME280;4111;50.972;7.072;2023-05-24T09:49:59;101872.25;;;14.30;62.05
8140;BME280;4111;50.972;7.072;2023-05-24T09:52:26;101874.88;;;14.25;62.19
8140;BME280;4111;50.972;7.072;2023-05-24T09:54:53;101874.41;;;14.28;62.84
8140;BME280;4111;50.972;7.072;2023-05-24T09:57:20;101871.03;;;14.38;64.00
8140;BME280;4111;50.972;7.072;2023-05-24T09:59:51;101870.00;;;14.56;64.39
8140;BME280;4111;50.972;7.072;2023-05-24T10:02:20;101865.72;;;14.60;63.95
8140;BME280;4111;50.972;7.072;2023-05-24T10:04:57;101871.84;;;14.67;63.32
8140;BME280;4111;50.972;7.072;2023-05-24T10:07:25;101859.84;;;14.68;62.42
8140;BME280;4111;50.972;7.072;2023-05-24T10:09:52;101853.31;;;14.86;62.48
8140;BME280;4111;50.972;7.072;2023-05-24T10:12:19;101858.97;;;15.13;62.80
8140;BME280;4111;50.972;7.072;2023-05-24T10:14:49;101849.91;;;15.30;61.63
8140;BME280;4111;50.972;7.072;2023-05-24T10:17:17;101852.88;;;15.28;61.49
8140;BME280;4111;50.972;7.072;2023-05-24T10:19:43;101853.75;;;14.78;60.25
8140;BME280;4111;50.972;7.072;2023-05-24T10:22:11;101857.81;;;14.75;60.75
8140;BME280;4111;50.972;7.072;2023-05-24T10:24:43;101853.97;;;14.76;61.77
8140;BME280;4111;50.972;7.072;2023-05-24T10:27:14;101864.34;;;14.91;62.64
8140;BME280;4111;50.972;7.072;2023-05-24T10:32:16;101862.69;;;15.07;62.58
8140;BME280;4111;50.972;7.072;2023-05-24T10:34:45;101862.13;;;15.05;61.41
8140;BME280;4111;50.972;7.072;2023-05-24T10:37:12;101855.31;;;15.07;61.15
8140;BME280;4111;50.972;7.072;2023-05-24T10:39:40;101861.94;;;15.12;61.03
8140;BME280;4111;50.972;7.072;2023-05-24T10:42:07;101867.75;;;15.15;60.95
8140;BME280;4111;50.972;7.072;2023-05-24T10:44:35;101861.16;;;15.50;61.03
8140;BME280;4111;50.972;7.072;2023-05-24T10:49:54;101854.78;;;15.44;58.71
8140;BME280;4111;50.972;7.072;2023-05-24T10:52:33;101851.75;;;15.46;58.11
8140;BME280;4111;50.972;7.072;2023-05-24T10:55:07;101862.56;;;15.36;58.05
8140;BME280;4111;50.972;7.072;2023-05-24T10:57:35;101853.28;;;15.37;58.38
8140;BME280;4111;50.972;7.072;2023-05-24T11:03:06;101852.56;;;15.24;58.25
8140;BME280;4111;50.972;7.072;2023-05-24T11:08:14;101846.16;;;15.36;57.92
8140;BME280;4111;50.972;7.072;2023-05-24T11:10:46;101841.66;;;15.46;58.54
8140;BME280;4111;50.972;7.072;2023-05-24T11:13:12;101841.59;;;15.63;58.14
8140;BME280;4111;50.972;7.072;2023-05-24T11:15:48;101845.78;;;15.88;58.49
8140;BME280;4111;50.972;7.072;2023-05-24T11:18:16;101845.09;;;15.76;56.96
8140;BME280;4111;50.972;7.072;2023-05-24T11:20:43;101834.66;;;15.73;56.37
8140;BME280;4111;50.972;7.072;2023-05-24T11:23:14;101837.47;;;15.78;55.91
8140;BME280;4111;50.972;7.072;2023-05-24T11:25:41;101832.94;;;15.72;55.46
8140;BME280;4111;50.972;7.072;2023-05-24T11:28:09;101836.53;;;15.72;55.66
8140;BME280;4111;50.972;7.072;2023-05-24T11:30:44;101829.81;;;15.80;57.02
8140;BME280;4111;50.972;7.072;2023-05-24T11:33:21;101825.47;;;15.84;56.98
8140;BME280;4111;50.972;7.072;2023-05-24T11:35:53;101830.44;;;15.87;57.61
8140;BME280;4111;50.972;7.072;2023-05-24T11:38:21;101833.31;;;15.75;57.69
8140;BME280;4111;50.972;7.072;2023-05-24T11:40:50;101826.91;;;15.70;57.40
8140;BME280;4111;50.972;7.072;2023-05-24T11:43:19;101831.66;;;15.57;56.80
8140;BME280;4111;50.972;7.072;2023-05-24T11:45:48;101829.88;;;15.46;56.81
8140;BME280;4111;50.972;7.072;2023-05-24T11:48:15;101836.63;;;15.38;56.41
8140;BME280;4111;50.972;7.072;2023-05-24T11:50:47;101829.34;;;15.27;56.40
8140;BME280;4111;50.972;7.072;2023-05-24T11:53:18;101830.81;;;15.35;57.04
8140;BME280;4111;50.972;7.072;2023-05-24T11:55:45;101835.06;;;15.25;56.75
8140;BME280;4111;50.972;7.072;2023-05-24T11:58:21;101839.00;;;15.13;56.51
8140;BME280;4111;50.972;7.072;2023-05-24T12:00:50;101832.59;;;15.07;56.87
8140;BME280;4111;50.972;7.072;2023-05-24T12:03:16;101837.41;;;15.00;56.75
8140;BME280;4111;50.972;7.072;2023-05-24T12:05:43;101841.72;;;14.96;57.12
8140;BME280;4111;50.972;7.072;2023-05-24T12:08:11;101839.56;;;14.98;57.52
8140;BME280;4111;50.972;7.072;2023-05-24T12:10:39;101840.06;;;14.95;57.52
8140;BME280;4111;50.972;7.072;2023-05-24T12:13:26;101838.41;;;14.94;57.68
8140;BME280;4111;50.972;7.072;2023-05-24T12:15:54;101841.72;;;14.96;57.42
8140;BME280;4111;50.972;7.072;2023-05-24T12:18:23;101841.25;;;14.99;58.50
8140;BME280;4111;50.972;7.072;2023-05-24T12:20:51;101836.06;;;15.19;59.39
8140;BME280;4111;50.972;7.072;2023-05-24T12:23:21;101830.69;;;15.24;58.77
8140;BME280;4111;50.972;7.072;2023-05-24T12:25:48;101834.72;;;15.39;58.15
8140;BME280;4111;50.972;7.072;2023-05-24T12:28:18;101832.13;;;15.32;57.32
8140;BME280;4111;50.972;7.072;2023-05-24T12:30:48;101836.25;;;15.52;57.92
8140;BME280;4111;50.972;7.072;2023-05-24T12:33:18;101831.22;;;15.65;57.84
8140;BME280;4111;50.972;7.072;2023-05-24T12:35:45;101828.97;;;15.79;57.05
8140;BME280;4111;50.972;7.072;2023-05-24T12:38:12;101825.47;;;15.84;56.88
8140;BME280;4111;50.972;7.072;2023-05-24T12:40:41;101818.31;;;16.05;57.01
8140;BME280;4111;50.972;7.072;2023-05-24T12:43:11;101824.09;;;16.09;56.17
8140;BME280;4111;50.972;7.072;2023-05-24T12:45:39;101831.56;;;15.91;55.82
8140;BME280;4111;50.972;7.072;2023-05-24T12:48:06;101827.31;;;16.00;56.39
8140;BME280;4111;50.972;7.072;2023-05-24T12:50:34;101826.66;;;15.93;55.92
8140;BME280;4111;50.972;7.072;2023-05-24T12:53:00;101825.00;;;15.70;55.84
8140;BME280;4111;50.972;7.072;2023-05-24T12:55:27;101832.09;;;15.88;56.66
8140;BME280;4111;50.972;7.072;2023-05-24T12:57:54;101827.94;;;15.85;56.24
8140;BME280;4111;50.972;7.072;2023-05-24T13:00:26;101825.97;;;15.81;55.98
8140;BME280;4111;50.972;7.072;2023-05-24T13:02:56;101817.94;;;15.96;56.36
8140;BME280;4111;50.972;7.072;2023-05-24T13:05:26;101829.84;;;16.07;57.15
8140;BME280;4111;50.972;7.072;2023-05-24T13:07:53;101816.56;;;16.21;57.46
8140;BME280;4111;50.972;7.072;2023-05-24T13:10:22;101815.03;;;16.30;57.22
8140;BME280;4111;50.972;7.072;2023-05-24T13:12:49;101816.22;;;16.12;56.11
8140;BME280;4111;50.972;7.072;2023-05-24T13:15:16;101818.38;;;16.10;56.37
8140;BME280;4111;50.972;7.072;2023-05-24T13:17:44;101816.91;;;16.02;56.28
8140;BME280;4111;50.972;7.072;2023-05-24T13:20:12;101810.47;;;16.14;56.37
8140;BME280;4111;50.972;7.072;2023-05-24T13:22:38;101812.19;;;16.20;56.51
8140;BME280;4111;50.972;7.072;2023-05-24T13:25:05;101808.78;;;16.08;56.45
8140;BME280;4111;50.972;7.072;2023-05-24T13:27:33;101815.38;;;16.12;56.42
8140;BME280;4111;50.972;7.072;2023-05-24T13:29:59;101804.94;;;16.09;56.50
8140;BME280;4111;50.972;7.072;2023-05-24T13:32:27;101818.06;;;16.06;56.26
8140;BME280;4111;50.972;7.072;2023-05-24T13:34:53;101820.13;;;15.94;56.30
8140;BME280;4111;50.972;7.072;2023-05-24T13:37:20;101814.69;;;15.77;56.44
8140;BME280;4111;50.972;7.072;2023-05-24T13:39:46;101816.06;;;15.58;56.15
8140;BME280;4111;50.972;7.072;2023-05-24T13:42:12;101809.16;;;15.50;56.76
8140;BME280;4111;50.972;7.072;2023-05-24T13:44:39;101816.13;;;15.41;56.78
8140;BME280;4111;50.972;7.072;2023-05-24T13:47:06;101821.75;;;15.34;57.16
8140;BME280;4111;50.972;7.072;2023-05-24T13:49:33;101818.44;;;15.32;57.43
8140;BME280;4111;50.972;7.072;2023-05-24T13:52:00;101818.16;;;15.29;57.65